Terminal Aerodrome Forecast
Issued by NWS

Home | Current Version | Previous Version | Text Only | Print | Product List | Glossary On
Versions: 1 2 3 4 5 6 7 8 9 10 11 12 13 14 15 16 17
000
FTUS44 KEPZ 192300 CCA
TAFDMN
TAF COR
KDMN 192343Z 2000/2024 30010KT P6SM VCTS BKN050CB BKN100 BKN200
      TEMPO 2000/2002 32012G22KT
     FM200600 28010KT P6SM VCTS SCT050CB BKN080 OVC150
      TEMPO 2006/2010 VRB30G40KT 4SM TSRAGS BKN040CB OVC100
     FM201000 29010KT P6SM VCTS SCT050CB SCT100 BKN200
     FM201800 27010KT P6SM SCT060 SCT120 SCT250=

USA.gov is the U.S. government's official web portal to all federal, state and local government web resources and services.